createdAt,value
2022-10-26T00:00:39.137Z,9.30
2022-10-26T00:04:01.266Z,8.63
2022-10-26T00:07:03.254Z,9.30
2022-10-26T00:10:05.769Z,9.00
2022-10-26T00:13:12.646Z,8.77
2022-10-26T00:16:28.879Z,8.77
2022-10-26T00:19:34.141Z,8.07
2022-10-26T00:22:36.250Z,8.60
2022-10-26T00:25:38.464Z,9.50
2022-10-26T00:28:43.227Z,8.20
2022-10-26T00:31:45.242Z,8.83
2022-10-26T00:34:47.357Z,8.40
2022-10-26T00:37:49.492Z,8.17
2022-10-26T00:40:51.855Z,8.57
2022-10-26T00:43:54.956Z,8.77
2022-10-26T00:46:57.127Z,8.03
2022-10-26T00:50:04.543Z,9.07
2022-10-26T00:53:07.013Z,8.60
2022-10-26T00:56:09.254Z,8.43
2022-10-26T00:59:13.720Z,7.87
2022-10-26T01:02:15.603Z,7.43
2022-10-26T01:05:19.197Z,8.13
2022-10-26T01:08:21.405Z,7.47
2022-10-26T01:11:23.893Z,8.53
2022-10-26T01:14:28.316Z,7.73
2022-10-26T01:17:56.657Z,7.67
2022-10-26T01:21:20.009Z,6.97
2022-10-26T01:24:43.504Z,7.63
2022-10-26T01:27:51.439Z,7.67
2022-10-26T01:30:57.853Z,7.27
2022-10-26T01:34:46.363Z,7.67
2022-10-26T01:38:11.528Z,9.23
2022-10-26T01:41:33.354Z,9.70
2022-10-26T01:44:42.431Z,9.33
2022-10-26T01:47:47.929Z,9.57
2022-10-26T01:50:53.348Z,9.50
2022-10-26T01:53:56.069Z,10.17
2022-10-26T01:57:04.167Z,10.10
2022-10-26T02:00:09.877Z,10.77
2022-10-26T02:03:15.047Z,10.07
2022-10-26T02:06:30.816Z,9.73
2022-10-26T02:09:35.660Z,10.43
2022-10-26T02:12:56.232Z,10.00
2022-10-26T02:16:01.832Z,10.17
2022-10-26T02:19:09.599Z,10.67
2022-10-26T02:22:36.816Z,10.27
2022-10-26T02:25:44.745Z,9.60
2022-10-26T02:28:50.789Z,8.90
2022-10-26T02:31:54.039Z,9.63
2022-10-26T02:34:58.878Z,9.47
2022-10-26T02:38:04.747Z,9.73
2022-10-26T02:41:08.211Z,10.20
2022-10-26T02:44:28.851Z,10.40
2022-10-26T02:47:31.353Z,9.33
2022-10-26T02:50:39.848Z,9.07
2022-10-26T02:53:57.832Z,9.10
2022-10-26T02:57:24.981Z,9.07
2022-10-26T03:00:27.205Z,8.53
2022-10-26T03:03:29.280Z,9.13
2022-10-26T03:06:31.375Z,8.50
2022-10-26T03:09:33.340Z,8.00
2022-10-26T03:12:35.410Z,8.53
2022-10-26T03:15:37.525Z,9.20
2022-10-26T03:18:39.640Z,8.60
2022-10-26T03:21:42.397Z,8.10
2022-10-26T03:24:44.583Z,9.07
2022-10-26T03:27:46.689Z,8.87
2022-10-26T03:30:49.010Z,7.60
2022-10-26T03:33:50.975Z,7.83
2022-10-26T03:36:53.051Z,7.70
2022-10-26T03:39:55.031Z,8.43
2022-10-26T03:42:57.133Z,8.77
2022-10-26T03:45:59.107Z,8.60
2022-10-26T03:49:01.273Z,8.90
2022-10-26T03:52:03.329Z,7.80
2022-10-26T03:55:06.773Z,8.20
2022-10-26T03:58:08.649Z,9.30
2022-10-26T04:01:10.953Z,9.57
2022-10-26T04:04:12.964Z,10.43
2022-10-26T04:07:15.264Z,10.43
2022-10-26T04:10:17.146Z,10.60
2022-10-26T04:13:19.262Z,11.90
2022-10-26T04:16:22.128Z,12.73
2022-10-26T04:19:24.369Z,13.00
2022-10-26T04:22:26.461Z,12.93
2022-10-26T04:25:32.791Z,12.10
2022-10-26T04:28:35.374Z,11.83
2022-10-26T04:31:37.559Z,10.67
2022-10-26T04:34:39.476Z,8.97
2022-10-26T04:37:41.598Z,8.70
2022-10-26T04:40:43.562Z,7.60
2022-10-26T04:43:45.626Z,7.50
2022-10-26T04:46:47.768Z,6.77
2022-10-26T04:49:49.934Z,7.80
2022-10-26T04:52:52.108Z,7.90
2022-10-26T04:55:58.482Z,8.53
2022-10-26T04:59:00.403Z,8.23
2022-10-26T05:02:02.748Z,8.47
2022-10-26T05:05:06.906Z,9.43
2022-10-26T05:08:11.087Z,8.70
2022-10-26T05:11:12.996Z,7.53
2022-10-26T05:14:15.137Z,6.37
2022-10-26T05:17:17.044Z,7.03
2022-10-26T05:20:19.239Z,7.70
2022-10-26T05:23:22.161Z,7.80
2022-10-26T05:26:24.781Z,8.27
2022-10-26T05:29:26.736Z,9.00
2022-10-26T05:32:28.872Z,10.47
2022-10-26T05:35:32.097Z,8.97
2022-10-26T05:38:34.495Z,10.50
2022-10-26T05:41:36.355Z,10.13
2022-10-26T05:44:38.454Z,10.57
2022-10-26T05:47:41.558Z,9.93
2022-10-26T05:50:43.855Z,9.63
2022-10-26T05:53:46.040Z,9.80
2022-10-26T05:56:48.425Z,10.47
2022-10-26T05:59:50.693Z,9.03
2022-10-26T06:03:20.763Z,9.27
2022-10-26T06:06:23.457Z,9.43
2022-10-26T06:09:25.917Z,8.67
2022-10-26T06:12:28.148Z,9.50
2022-10-26T06:15:32.642Z,10.00
2022-10-26T06:18:42.958Z,9.63
2022-10-26T06:21:47.900Z,9.23
2022-10-26T06:24:55.429Z,9.77
2022-10-26T06:28:22.124Z,9.53
2022-10-26T06:31:24.334Z,9.50
2022-10-26T06:34:33.068Z,9.57
2022-10-26T06:37:36.623Z,12.13
2022-10-26T06:40:42.660Z,12.20
2022-10-26T06:43:44.893Z,13.73
2022-10-26T06:46:53.100Z,13.87
2022-10-26T06:50:09.761Z,13.90
2022-10-26T06:53:27.790Z,12.30
2022-10-26T06:56:36.636Z,10.10
2022-10-26T07:00:16.671Z,9.83
2022-10-26T07:03:18.712Z,9.17
2022-10-26T07:06:25.894Z,9.40
2022-10-26T07:09:30.611Z,9.70
2022-10-26T07:12:33.183Z,11.10
2022-10-26T07:15:37.032Z,11.40
2022-10-26T07:18:39.336Z,11.40
2022-10-26T07:21:41.264Z,11.13
2022-10-26T07:24:43.444Z,11.97
2022-10-26T07:27:45.357Z,11.37
2022-10-26T07:30:47.532Z,10.70
2022-10-26T07:33:49.473Z,11.00
2022-10-26T07:36:51.669Z,10.43
2022-10-26T07:39:57.047Z,10.60
2022-10-26T07:43:00.693Z,11.73
2022-10-26T07:46:02.920Z,10.90
2022-10-26T07:49:05.045Z,10.48
2022-10-26T07:52:07.028Z,11.70
2022-10-26T07:55:10.995Z,12.25
2022-10-26T07:58:13.196Z,12.38
2022-10-26T08:01:16.055Z,13.05
2022-10-26T08:04:18.309Z,12.50
2022-10-26T08:07:21.720Z,12.25
2022-10-26T08:10:26.568Z,12.38
2022-10-26T08:13:29.064Z,13.65
2022-10-26T08:16:31.447Z,12.88
2022-10-26T08:19:34.740Z,12.98
2022-10-26T08:22:39.612Z,13.73
2022-10-26T08:25:41.673Z,13.40
2022-10-26T08:28:43.601Z,12.20
2022-10-26T08:31:47.972Z,13.23
2022-10-26T08:34:49.955Z,12.98
2022-10-26T08:37:53.167Z,13.70
2022-10-26T08:40:57.796Z,13.25
2022-10-26T08:44:20.937Z,13.15
2022-10-26T08:47:30.050Z,14.10
2022-10-26T08:50:40.534Z,13.50
2022-10-26T08:53:54.393Z,13.93
2022-10-26T08:57:00.461Z,26.27
2022-10-26T09:00:15.594Z,13.95
2022-10-26T09:03:18.889Z,14.93
2022-10-26T09:06:45.474Z,16.42
2022-10-26T09:10:11.461Z,15.35
2022-10-26T09:13:23.909Z,14.75
2022-10-26T09:16:33.673Z,14.55
2022-10-26T09:19:47.662Z,14.60
2022-10-26T09:23:27.600Z,14.38
2022-10-26T09:26:32.553Z,14.13
2022-10-26T09:29:41.739Z,14.77
2022-10-26T09:32:47.696Z,28.38
2022-10-26T09:35:54.555Z,14.45
2022-10-26T09:39:03.297Z,13.70
2022-10-26T09:42:18.391Z,13.45
2022-10-26T09:45:30.085Z,13.32
2022-10-26T09:48:56.046Z,13.55
2022-10-26T09:51:58.334Z,12.68
2022-10-26T09:55:00.514Z,13.38
2022-10-26T09:58:06.317Z,13.07
2022-10-26T10:01:21.867Z,12.60
2022-10-26T10:04:24.162Z,12.27
2022-10-26T10:07:26.256Z,12.23
2022-10-26T10:10:28.219Z,14.00
2022-10-26T10:13:33.328Z,12.77
2022-10-26T10:16:36.060Z,11.40
2022-10-26T10:19:39.260Z,11.05
2022-10-26T10:22:57.571Z,9.95
2022-10-26T10:26:18.021Z,10.85
2022-10-26T10:29:19.900Z,10.30
2022-10-26T10:32:35.810Z,10.98
2022-10-26T10:35:49.800Z,10.95
2022-10-26T10:38:53.992Z,11.60
2022-10-26T10:41:57.160Z,10.50
2022-10-26T10:45:00.625Z,9.57
2022-10-26T10:48:02.481Z,8.05
2022-10-26T10:51:12.472Z,8.25
2022-10-26T10:54:38.986Z,8.38
2022-10-26T10:57:57.917Z,9.45
2022-10-26T11:00:59.828Z,9.27
2022-10-26T11:04:39.107Z,8.45
2022-10-26T11:08:07.355Z,8.82
2022-10-26T11:11:23.156Z,8.68
2022-10-26T11:14:29.742Z,9.07
2022-10-26T11:17:57.346Z,8.75
2022-10-26T11:21:20.783Z,8.45
2022-10-26T11:24:25.745Z,9.68
2022-10-26T11:27:39.829Z,8.45
2022-10-26T11:30:49.135Z,8.40
2022-10-26T11:34:13.523Z,8.32
2022-10-26T11:37:19.639Z,8.88
2022-10-26T11:40:44.741Z,8.88
2022-10-26T11:44:09.198Z,9.18
2022-10-26T11:47:22.303Z,8.93
2022-10-26T11:50:29.472Z,8.65
2022-10-26T11:53:38.683Z,7.60
2022-10-26T11:56:48.548Z,7.55
2022-10-26T12:00:13.213Z,7.85
2022-10-26T12:03:19.873Z,7.57
2022-10-26T12:06:27.481Z,7.65
2022-10-26T12:09:35.739Z,8.23
2022-10-26T12:12:56.416Z,8.23
2022-10-26T12:16:03.952Z,7.10
2022-10-26T12:19:20.151Z,7.63
2022-10-26T12:22:29.269Z,8.10
2022-10-26T12:25:31.535Z,7.80
2022-10-26T12:28:36.352Z,7.30
2022-10-26T12:31:38.328Z,7.68
2022-10-26T12:34:40.440Z,7.03
2022-10-26T12:37:42.399Z,7.40
2022-10-26T12:40:44.975Z,8.10
2022-10-26T12:43:47.410Z,7.97
2022-10-26T12:46:49.752Z,7.13
2022-10-26T12:50:07.008Z,7.53
2022-10-26T12:53:18.353Z,8.25
2022-10-26T12:56:28.618Z,7.18
2022-10-26T12:59:56.776Z,7.28
2022-10-26T13:03:24.065Z,8.13
2022-10-26T13:06:47.303Z,7.28
2022-10-26T13:10:05.768Z,7.03
2022-10-26T13:13:08.915Z,6.88
2022-10-26T13:16:13.169Z,6.38
2022-10-26T13:19:54.999Z,6.22
2022-10-26T13:22:57.609Z,5.10
2022-10-26T13:26:05.741Z,4.95
2022-10-26T13:29:10.594Z,5.10
2022-10-26T13:32:14.209Z,5.68
2022-10-26T13:35:17.909Z,4.40
2022-10-26T13:38:23.341Z,4.60
2022-10-26T13:41:36.504Z,4.45
2022-10-26T13:44:53.996Z,4.50
2022-10-26T13:48:03.178Z,3.78
2022-10-26T13:51:35.168Z,4.25
2022-10-26T13:54:44.839Z,3.97
2022-10-26T13:58:21.927Z,3.65
2022-10-26T14:01:25.477Z,3.85
2022-10-26T14:04:28.654Z,3.75
2022-10-26T14:07:39.997Z,3.35
2022-10-26T14:10:45.580Z,4.95
2022-10-26T14:13:50.167Z,4.53
2022-10-26T14:16:54.130Z,4.53
2022-10-26T14:19:56.134Z,8.57
2022-10-26T14:22:58.288Z,8.80
2022-10-26T14:26:00.271Z,6.68
2022-10-26T14:29:02.529Z,6.40
2022-10-26T14:32:37.995Z,6.13
2022-10-26T14:35:42.111Z,5.93
2022-10-26T14:38:47.668Z,5.35
2022-10-26T14:41:52.929Z,5.60
2022-10-26T14:44:55.418Z,6.30
2022-10-26T14:47:59.104Z,5.90
2022-10-26T14:51:18.824Z,6.75
2022-10-26T14:54:23.627Z,5.72
2022-10-26T14:57:36.647Z,6.50
2022-10-26T15:00:38.787Z,6.47
2022-10-26T15:03:42.148Z,6.03
2022-10-26T15:06:46.251Z,5.80
2022-10-26T15:09:53.159Z,5.00
2022-10-26T15:12:55.307Z,5.75
2022-10-26T15:16:31.252Z,4.90
2022-10-26T15:19:33.824Z,4.63
2022-10-26T15:22:43.547Z,4.88
2022-10-26T15:26:02.680Z,12.07
2022-10-26T15:29:04.696Z,5.43
2022-10-26T15:32:18.877Z,15.23
2022-10-26T15:35:24.230Z,5.95
2022-10-26T15:38:29.812Z,6.35
2022-10-26T15:41:38.845Z,5.80
2022-10-26T15:44:43.654Z,9.43
2022-10-26T15:47:47.230Z,7.47
2022-10-26T15:50:49.391Z,8.23
2022-10-26T15:53:51.795Z,6.38
2022-10-26T15:56:53.990Z,9.63
2022-10-26T15:59:55.991Z,9.43
2022-10-26T16:02:58.131Z,9.90
2022-10-26T16:06:02.214Z,9.83
2022-10-26T16:09:06.245Z,9.67
2022-10-26T16:12:11.703Z,10.40
2022-10-26T16:15:22.488Z,11.30
2022-10-26T16:18:24.819Z,11.53
2022-10-26T16:21:26.909Z,12.85
2022-10-26T16:24:31.054Z,12.93
2022-10-26T16:27:33.116Z,20.33
2022-10-26T16:30:36.945Z,24.63
2022-10-26T16:33:39.216Z,19.33
2022-10-26T16:36:41.303Z,13.97
2022-10-26T16:39:43.382Z,13.53
2022-10-26T16:42:45.573Z,12.77
2022-10-26T16:45:47.708Z,13.43
2022-10-26T16:48:50.516Z,11.43
2022-10-26T16:51:52.654Z,9.47
2022-10-26T16:54:54.985Z,9.90
2022-10-26T16:57:57.048Z,8.13
2022-10-26T17:00:58.981Z,8.33
2022-10-26T17:04:04.658Z,8.10
2022-10-26T17:07:06.622Z,7.93
2022-10-26T17:10:09.298Z,7.83
2022-10-26T17:13:11.285Z,8.60
2022-10-26T17:16:16.354Z,7.40
2022-10-26T17:19:18.482Z,8.03
2022-10-26T17:22:35.388Z,7.40
2022-10-26T17:25:38.786Z,7.03
2022-10-26T17:28:41.488Z,7.50
2022-10-26T17:31:43.936Z,7.30
2022-10-26T17:34:46.707Z,6.93
2022-10-26T17:37:49.523Z,7.00
2022-10-26T17:40:52.413Z,6.57
2022-10-26T17:43:55.064Z,7.00
2022-10-26T17:46:57.693Z,7.37
2022-10-26T17:50:00.307Z,7.90
2022-10-26T17:53:03.017Z,8.37
2022-10-26T17:56:12.524Z,7.53
2022-10-26T17:59:15.096Z,7.83
2022-10-26T18:02:17.757Z,8.60
2022-10-26T18:05:23.357Z,15.73
2022-10-26T18:08:25.662Z,9.47
2022-10-26T18:11:28.652Z,11.90
2022-10-26T18:14:31.461Z,13.83
2022-10-26T18:17:34.541Z,13.23
2022-10-26T18:20:37.133Z,9.17
2022-10-26T18:23:39.819Z,10.57
2022-10-26T18:26:42.208Z,18.80
2022-10-26T18:29:44.865Z,20.07
2022-10-26T18:32:50.005Z,17.07
2022-10-26T18:35:52.771Z,15.40
2022-10-26T18:38:55.708Z,19.50
2022-10-26T18:41:58.553Z,24.53
2022-10-26T18:45:03.227Z,29.60
2022-10-26T18:48:06.304Z,39.50
2022-10-26T18:51:11.837Z,40.17
2022-10-26T18:54:14.836Z,29.20
2022-10-26T18:57:24.615Z,28.83
2022-10-26T19:00:27.582Z,28.97
2022-10-26T19:03:30.411Z,27.53
2022-10-26T19:06:38.417Z,27.47
2022-10-26T19:09:40.864Z,24.97
2022-10-26T19:12:43.229Z,26.80
2022-10-26T19:15:50.167Z,28.20
2022-10-26T19:22:01.050Z,29.27
2022-10-26T19:25:03.867Z,31.70
2022-10-26T19:28:06.000Z,30.30
2022-10-26T19:31:11.172Z,29.77
2022-10-26T19:34:14.399Z,32.27
2022-10-26T19:37:16.466Z,36.33
2022-10-26T19:40:18.352Z,32.60
2022-10-26T19:43:20.483Z,28.07
2022-10-26T19:46:27.931Z,26.40
2022-10-26T19:49:30.129Z,21.43
2022-10-26T19:52:32.015Z,21.93
2022-10-26T19:55:34.662Z,22.23
2022-10-26T19:58:37.750Z,21.43
2022-10-26T20:01:40.211Z,22.27
2022-10-26T20:04:43.573Z,23.17
2022-10-26T20:07:46.064Z,23.20
2022-10-26T20:10:48.320Z,19.40
2022-10-26T20:13:50.613Z,21.00
2022-10-26T20:16:54.545Z,24.47
2022-10-26T20:19:57.098Z,18.83
2022-10-26T20:22:59.841Z,19.20
2022-10-26T20:26:03.337Z,18.80
2022-10-26T20:29:05.583Z,20.37
2022-10-26T20:32:07.946Z,19.50
2022-10-26T20:35:10.241Z,19.40
2022-10-26T20:38:21.458Z,20.47
2022-10-26T20:41:23.728Z,21.13
2022-10-26T20:44:30.911Z,24.53
2022-10-26T20:47:33.242Z,23.33
2022-10-26T20:50:35.726Z,21.70
2022-10-26T20:53:49.012Z,20.97
2022-10-26T20:56:51.538Z,19.87
2022-10-26T20:59:59.177Z,19.70
2022-10-26T21:03:01.538Z,18.90
2022-10-26T21:06:03.618Z,25.83
2022-10-26T21:09:06.532Z,20.20
2022-10-26T21:12:08.404Z,19.83
2022-10-26T21:15:12.088Z,20.10
2022-10-26T21:18:14.040Z,21.03
2022-10-26T21:21:16.184Z,22.43
2022-10-26T21:24:18.045Z,26.20
2022-10-26T21:27:20.238Z,24.00
2022-10-26T21:30:22.591Z,18.50
2022-10-26T21:33:31.881Z,22.60
2022-10-26T21:36:33.791Z,21.93
2022-10-26T21:39:35.890Z,22.93
2022-10-26T21:42:37.808Z,21.83
2022-10-26T21:45:39.887Z,21.83
2022-10-26T21:48:42.130Z,22.10
2022-10-26T21:51:44.289Z,20.47
2022-10-26T21:54:46.223Z,21.97
2022-10-26T21:57:48.764Z,22.97
2022-10-26T22:00:50.781Z,25.83
2022-10-26T22:03:52.891Z,27.03
2022-10-26T22:06:54.860Z,24.60
2022-10-26T22:10:10.361Z,23.43
2022-10-26T22:13:13.048Z,22.50
2022-10-26T22:16:20.928Z,23.63
2022-10-26T22:19:22.865Z,26.60
2022-10-26T22:22:24.929Z,24.47
2022-10-26T22:25:26.930Z,24.03
2022-10-26T22:28:32.029Z,25.27
2022-10-26T22:31:37.875Z,22.67
2022-10-26T22:34:39.941Z,23.13
2022-10-26T22:37:44.505Z,24.77
2022-10-26T22:40:55.121Z,24.43
2022-10-26T22:43:57.001Z,24.73
2022-10-26T22:46:59.656Z,25.07
2022-10-26T22:50:01.589Z,23.47
2022-10-26T22:53:03.810Z,23.90
2022-10-26T22:56:07.914Z,22.57
2022-10-26T22:59:10.040Z,22.70
2022-10-26T23:02:12.032Z,22.17
2022-10-26T23:05:14.278Z,22.57
2022-10-26T23:08:16.226Z,21.00
2022-10-26T23:11:21.066Z,20.10
2022-10-26T23:14:23.073Z,20.63
2022-10-26T23:17:25.153Z,18.63
2022-10-26T23:20:27.025Z,20.13
2022-10-26T23:23:29.277Z,19.17
2022-10-26T23:26:31.258Z,19.90
2022-10-26T23:29:33.405Z,19.33
2022-10-26T23:32:36.790Z,18.27
2022-10-26T23:35:40.346Z,20.67
2022-10-26T23:38:42.226Z,21.13
2022-10-26T23:41:44.306Z,20.73
2022-10-26T23:44:46.162Z,18.77
2022-10-26T23:47:48.979Z,18.90
2022-10-26T23:50:52.515Z,17.50
2022-10-26T23:53:54.646Z,18.67
2022-10-26T23:56:56.552Z,23.50
2022-10-26T23:59:58.646Z,29.40
